Time;durP1;ratioP1;P1;durP2;ratioP2;P2;SDS_P1;SDS_P2;PMS_P1;PMS_P2;Temp;Humidity;BMP_temperature;BMP_pressure;BME280_temperature;BME280_humidity;BME280_pressure;Samples;Min_cycle;Max_cycle;Signal;HPM_P1;HPM_P2
2022/09/27 00:00:03;;;;;;;;;;;;;;;9.70;77.74;98185.96;1780678;78;22085;-60
2022/09/27 00:02:31;;;;;;;;;;;;;;;9.70;77.75;98185.96;1770007;79;20120;-60
2022/09/27 00:04:58;;;;;;;;;;;;;;;9.66;77.86;98183.18;1761480;80;21103;-59
2022/09/27 00:07:24;;;;;;;;;;;;;;;9.68;77.80;98183.92;1740996;80;20159;-59
2022/09/27 00:09:50;;;;;;;;;;;;;;;9.64;77.79;98173.70;1735695;80;20110;-60
2022/09/27 00:12:17;;;;;;;;;;;;;;;9.62;77.85;98170.36;1744334;80;22138;-60
2022/09/27 00:14:43;;;;;;;;;;;;;;;9.61;77.84;98173.92;1760220;80;20154;-60
2022/09/27 00:17:10;;;;;;;;;;;;;;;9.59;77.93;98165.36;1759373;80;20177;-61
2022/09/27 00:19:36;;;;;;;;;;;;;;;9.57;77.88;98159.41;1767139;79;20625;-60
2022/09/27 00:22:03;;;;;;;;;;;;;;;9.55;77.94;98163.06;1741680;80;20490;-59
2022/09/27 00:24:30;;;;;;;;;;;;;;;9.50;77.93;98162.09;1735381;80;21493;-60
2022/09/27 00:26:56;;;;;;;;;;;;;;;9.46;77.96;98161.91;1733745;81;20476;-60
2022/09/27 00:29:22;;;;;;;;;;;;;;;9.41;78.00;98164.02;1744825;81;20154;-61
2022/09/27 00:31:49;;;;;;;;;;;;;;;9.38;78.08;98156.37;1741076;80;20312;-60
2022/09/27 00:34:18;;;;;;;;;;;;;;;9.35;78.15;98151.38;1777351;78;20158;-60
2022/09/27 00:36:45;;;;;;;;;;;;;;;9.33;78.23;98161.09;1750907;80;21294;-60
2022/09/27 00:39:11;;;;;;;;;;;;;;;9.32;78.32;98158.10;1746620;81;20238;-59
2022/09/27 00:41:37;;;;;;;;;;;;;;;9.32;78.33;98151.12;1733787;81;20536;-60
2022/09/27 00:44:28;;;;;;;;;;;;;;;9.33;78.35;98155.88;1742241;81;20077;-60
2022/09/27 00:47:04;;;;;;;;;;;;;;;9.31;78.35;98158.58;1733442;81;20147;-59
2022/09/27 00:49:41;;;;;;;;;;;;;;;9.30;78.39;98152.16;1752108;80;22058;-59
2022/09/27 00:52:11;;;;;;;;;;;;;;;9.27;78.42;98151.92;1745840;80;20805;-61
2022/09/27 00:54:40;;;;;;;;;;;;;;;9.24;78.40;98156.00;1770716;78;20107;-60
2022/09/27 00:57:06;;;;;;;;;;;;;;;9.21;78.41;98151.47;1774582;78;20122;-60
2022/09/27 00:59:44;;;;;;;;;;;;;;;9.15;78.42;98149.64;1762234;79;20144;-60
2022/09/27 01:02:11;;;;;;;;;;;;;;;9.03;78.61;98145.73;1772512;80;21210;-60
2022/09/27 01:04:38;;;;;;;;;;;;;;;8.94;78.71;98149.78;1767285;78;20527;-61
2022/09/27 01:07:06;;;;;;;;;;;;;;;8.89;78.76;98144.03;1747517;80;20158;-60
2022/09/27 01:09:33;;;;;;;;;;;;;;;8.82;78.81;98148.81;1729640;81;20127;-60
2022/09/27 01:12:26;;;;;;;;;;;;;;;8.76;78.87;98137.95;1766908;79;20174;-61
2022/09/27 01:15:02;;;;;;;;;;;;;;;8.67;78.87;98142.81;1767886;80;21969;-60
2022/09/27 01:18:07;;;;;;;;;;;;;;;8.58;78.98;98138.21;1773760;79;20187;-59
2022/09/27 01:20:54;;;;;;;;;;;;;;;8.51;78.97;98134.32;1764437;80;20159;-59
2022/09/27 01:23:48;;;;;;;;;;;;;;;8.45;78.94;98137.32;1762019;80;20096;-60
2022/09/27 01:26:34;;;;;;;;;;;;;;;8.37;78.98;98129.14;1760019;80;20137;-60
2022/09/27 01:29:16;;;;;;;;;;;;;;;8.32;79.03;98131.19;1765693;80;22254;-59
2022/09/27 01:31:55;;;;;;;;;;;;;;;8.23;79.09;98138.67;1766127;80;20168;-59
2022/09/27 01:34:28;;;;;;;;;;;;;;;8.17;79.15;98137.73;1757630;80;20102;-59
2022/09/27 01:37:13;;;;;;;;;;;;;;;8.10;79.19;98132.56;1761169;80;20239;-60
2022/09/27 01:40:05;;;;;;;;;;;;;;;8.04;79.29;98135.55;1775466;80;20345;-61
2022/09/27 01:42:56;;;;;;;;;;;;;;;7.96;79.33;98129.52;1774383;79;21105;-60
2022/09/27 01:45:31;;;;;;;;;;;;;;;7.89;79.35;98131.28;1681330;83;20951;-60
2022/09/27 01:48:00;;;;;;;;;;;;;;;7.83;79.43;98122.93;1694385;83;20235;-60
2022/09/27 01:50:36;;;;;;;;;;;;;;;7.78;79.52;98124.97;1694507;83;20307;-60
2022/09/27 01:53:18;;;;;;;;;;;;;;;7.73;79.55;98119.69;1683328;83;20570;-60
2022/09/27 01:55:47;;;;;;;;;;;;;;;7.66;79.61;98117.94;1680735;83;21150;-60
2022/09/27 01:58:32;;;;;;;;;;;;;;;7.61;79.58;98117.38;1693323;82;20457;-59
2022/09/27 02:01:00;;;;;;;;;;;;;;;7.56;79.70;98118.98;1695226;83;20182;-60
2022/09/27 02:03:33;;;;;;;;;;;;;;;7.51;79.87;98108.49;1680143;83;20181;-60
2022/09/27 02:06:03;;;;;;;;;;;;;;;7.47;79.82;98107.82;1694253;84;20296;-59
2022/09/27 02:08:40;;;;;;;;;;;;;;;7.44;79.92;98107.18;1700913;83;21906;-59
2022/09/27 02:11:12;;;;;;;;;;;;;;;7.39;80.04;98100.52;1683892;83;20163;-60
2022/09/27 02:13:51;;;;;;;;;;;;;;;7.37;80.13;98107.55;1661456;85;20316;-59
2022/09/27 02:16:20;;;;;;;;;;;;;;;7.34;80.09;98106.44;1680272;83;20192;-60
2022/09/27 02:18:51;;;;;;;;;;;;;;;7.31;80.33;98104.47;1677737;84;20212;-60
2022/09/27 02:21:18;;;;;;;;;;;;;;;7.29;80.29;98105.05;1679944;81;21591;-60
2022/09/27 02:23:51;;;;;;;;;;;;;;;7.25;80.30;98101.78;1739592;81;20471;-60
2022/09/27 02:26:30;;;;;;;;;;;;;;;7.24;80.40;98101.89;1782094;80;20119;-59
2022/09/27 02:29:05;;;;;;;;;;;;;;;7.23;80.41;98095.03;1734824;81;20552;-60
2022/09/27 02:31:32;;;;;;;;;;;;;;;7.20;80.51;98093.45;1732963;81;20242;-59
2022/09/27 02:34:01;;;;;;;;;;;;;;;7.19;80.56;98094.36;1732998;80;21137;-60
2022/09/27 02:36:29;;;;;;;;;;;;;;;7.17;80.69;98087.98;1742012;81;20161;-59
2022/09/27 02:38:55;;;;;;;;;;;;;;;7.18;80.82;98091.41;1750697;81;20169;-60
2022/09/27 02:41:22;;;;;;;;;;;;;;;7.21;80.90;98086.02;1740247;80;20443;-60
2022/09/27 02:43:54;;;;;;;;;;;;;;;7.23;80.85;98087.25;1731742;81;21096;-60
2022/09/27 02:46:41;;;;;;;;;;;;;;;7.20;80.84;98088.27;1734414;81;21281;-60
2022/09/27 02:49:20;;;;;;;;;;;;;;;7.20;80.86;98091.30;1744256;80;20346;-60
2022/09/27 02:52:10;;;;;;;;;;;;;;;7.18;80.87;98078.42;1733464;80;20238;-60
2022/09/27 02:55:00;;;;;;;;;;;;;;;7.15;80.90;98079.44;1733240;80;20545;-60
2022/09/27 02:57:59;;;;;;;;;;;;;;;7.13;80.94;98077.86;1740555;81;20218;-60
2022/09/27 03:00:31;;;;;;;;;;;;;;;7.09;81.04;98076.39;1744990;81;21101;-60
2022/09/27 03:03:04;;;;;;;;;;;;;;;7.06;81.15;98073.97;1744834;80;20401;-62
2022/09/27 03:05:37;;;;;;;;;;;;;;;7.03;81.43;98070.23;1747300;79;20143;-58
2022/09/27 03:08:03;;;;;;;;;;;;;;;7.03;81.36;98067.64;1734681;80;20468;-59
2022/09/27 03:10:30;;;;;;;;;;;;;;;7.01;81.46;98071.64;1737322;80;20155;-59
2022/09/27 03:13:03;;;;;;;;;;;;;;;7.02;81.60;98062.09;1746140;81;21095;-58
2022/09/27 03:15:25;;;;;;;;;;;;;;;7.02;81.56;98064.69;1739425;80;20149;-59
2022/09/27 03:17:51;;;;;;;;;;;;;;;7.01;81.44;98065.63;1731203;81;20100;-59
2022/09/27 03:20:18;;;;;;;;;;;;;;;7.00;81.56;98063.49;1735236;81;20146;-59
2022/09/27 03:22:45;;;;;;;;;;;;;;;7.04;81.75;98058.95;1728442;81;20130;-59
2022/09/27 03:25:12;;;;;;;;;;;;;;;7.06;81.65;98055.81;1735920;81;21146;-59
2022/09/27 03:27:38;;;;;;;;;;;;;;;7.04;81.70;98047.27;1736451;81;20198;-58
2022/09/27 03:30:06;;;;;;;;;;;;;;;7.05;81.56;98048.92;1742937;82;20139;-59
2022/09/27 03:32:32;;;;;;;;;;;;;;;7.03;81.72;98042.98;1739382;80;20127;-59
2022/09/27 03:34:59;;;;;;;;;;;;;;;7.03;81.72;98047.73;1737151;81;20245;-59
2022/09/27 03:37:28;;;;;;;;;;;;;;;7.00;81.64;98051.81;1733418;81;22548;-59
2022/09/27 03:39:53;;;;;;;;;;;;;;;6.97;81.80;98043.36;1733068;81;21131;-59
2022/09/27 03:42:20;;;;;;;;;;;;;;;6.94;81.79;98045.20;1739147;81;20098;-59
2022/09/27 03:44:46;;;;;;;;;;;;;;;6.94;81.87;98043.91;1738787;81;20315;-59
2022/09/27 03:47:13;;;;;;;;;;;;;;;6.92;81.95;98035.86;1737227;81;20121;-59
2022/09/27 03:49:40;;;;;;;;;;;;;;;6.90;82.01;98037.23;1739738;81;21061;-59
2022/09/27 03:52:07;;;;;;;;;;;;;;;6.89;82.07;98036.02;1756771;80;20304;-59
2022/09/27 03:54:33;;;;;;;;;;;;;;;6.85;82.08;98037.97;1745112;80;20533;-59
2022/09/27 03:57:00;;;;;;;;;;;;;;;6.84;82.18;98041.50;1735946;81;20193;-59
2022/09/27 03:59:26;;;;;;;;;;;;;;;6.82;82.18;98030.37;1745553;81;20094;-59
2022/09/27 04:01:52;;;;;;;;;;;;;;;6.82;82.24;98035.56;1750292;80;22338;-59
2022/09/27 04:04:19;;;;;;;;;;;;;;;6.81;82.51;98035.66;1739710;81;21058;-58
2022/09/27 04:06:45;;;;;;;;;;;;;;;6.78;82.56;98037.97;1745235;81;20118;-59
2022/09/27 04:09:11;;;;;;;;;;;;;;;6.78;82.50;98032.78;1746635;80;20718;-59
2022/09/27 04:11:38;;;;;;;;;;;;;;;6.79;82.71;98035.73;1743495;80;20126;-59
2022/09/27 04:14:04;;;;;;;;;;;;;;;6.83;82.83;98034.63;1747953;80;21035;-59
2022/09/27 04:16:32;;;;;;;;;;;;;;;6.86;83.03;98034.47;1749826;80;20102;-59
2022/09/27 04:19:00;;;;;;;;;;;;;;;6.89;83.05;98036.88;1746698;81;20541;-59
2022/09/27 04:21:27;;;;;;;;;;;;;;;6.91;83.08;98024.63;1753813;80;20115;-60
2022/09/27 04:23:53;;;;;;;;;;;;;;;6.95;83.31;98026.13;1749886;80;20439;-60
2022/09/27 04:26:19;;;;;;;;;;;;;;;7.00;83.29;98025.01;1744118;80;21215;-60
2022/09/27 04:28:46;;;;;;;;;;;;;;;7.05;83.49;98032.06;1754794;81;20911;-59
2022/09/27 04:31:13;;;;;;;;;;;;;;;7.07;83.43;98021.96;1741438;80;20274;-60
2022/09/27 04:33:39;;;;;;;;;;;;;;;7.10;83.44;98032.16;1752254;80;20102;-60
2022/09/27 04:38:57;;;;;;;;;;;;;;;7.15;83.35;98029.30;1749344;81;21169;-60
2022/09/27 04:41:24;;;;;;;;;;;;;;;7.16;83.27;98025.77;1768783;78;20152;-60
2022/09/27 04:43:51;;;;;;;;;;;;;;;7.17;83.34;98014.47;1746814;79;20210;-59
2022/09/27 04:46:19;;;;;;;;;;;;;;;7.21;83.44;98021.60;1741043;81;20300;-60
2022/09/27 04:48:49;;;;;;;;;;;;;;;7.22;83.50;98018.89;1753108;80;20086;-59
2022/09/27 04:51:16;;;;;;;;;;;;;;;7.25;83.46;98014.81;1739966;81;22425;-60
2022/09/27 04:53:44;;;;;;;;;;;;;;;7.27;83.51;98020.75;1751031;80;20102;-60
2022/09/27 04:56:11;;;;;;;;;;;;;;;7.30;83.47;98019.27;1740792;81;20119;-61
2022/09/27 04:58:37;;;;;;;;;;;;;;;7.33;83.50;98017.77;1751687;79;20173;-60
2022/09/27 05:01:05;;;;;;;;;;;;;;;7.37;83.66;98014.08;1755807;80;20157;-60
2022/09/27 05:03:32;;;;;;;;;;;;;;;7.44;83.79;98011.10;1749117;79;21133;-60
2022/09/27 05:06:00;;;;;;;;;;;;;;;7.51;83.77;98009.81;1741611;81;20170;-60
2022/09/27 05:08:27;;;;;;;;;;;;;;;7.70;83.93;98012.92;1752886;81;20172;-61
2022/09/27 05:10:54;;;;;;;;;;;;;;;7.98;83.82;98015.05;1749806;80;21688;-60
2022/09/27 05:13:21;;;;;;;;;;;;;;;8.17;83.65;98010.34;1743383;81;20263;-61
2022/09/27 05:15:47;;;;;;;;;;;;;;;8.44;83.70;98005.62;1731662;79;21189;-60
2022/09/27 05:18:14;;;;;;;;;;;;;;;8.85;83.77;98004.61;1745027;80;20164;-60
2022/09/27 05:20:41;;;;;;;;;;;;;;;9.24;83.70;98000.22;1740112;80;20155;-61
2022/09/27 05:23:07;;;;;;;;;;;;;;;9.66;83.38;98003.37;1747190;81;20151;-59
2022/09/27 05:25:34;;;;;;;;;;;;;;;9.92;83.16;97989.32;1759504;79;20212;-60
2022/09/27 05:28:01;;;;;;;;;;;;;;;10.21;83.02;97987.66;1757490;81;21575;-61
2022/09/27 05:30:27;;;;;;;;;;;;;;;10.35;82.65;97987.98;1752217;80;20437;-61
2022/09/27 05:32:54;;;;;;;;;;;;;;;10.51;82.84;97993.73;1740135;81;20191;-60
2022/09/27 05:35:21;;;;;;;;;;;;;;;10.92;82.73;97993.23;1756859;80;20103;-60
2022/09/27 05:37:56;;;;;;;;;;;;;;;11.16;82.43;97992.30;1753524;80;20147;-61
2022/09/27 05:40:24;;;;;;;;;;;;;;;11.40;82.31;97993.02;1780317;80;21785;-61
2022/09/27 05:42:54;;;;;;;;;;;;;;;11.49;81.98;97988.02;1777666;79;20782;-61
2022/09/27 05:45:22;;;;;;;;;;;;;;;11.57;81.93;97994.78;1788034;79;20126;-61
2022/09/27 05:47:56;;;;;;;;;;;;;;;11.69;81.80;97984.65;1730150;81;20234;-61
2022/09/27 05:50:24;;;;;;;;;;;;;;;11.90;81.96;97986.52;1742970;80;20186;-61
2022/09/27 05:52:51;;;;;;;;;;;;;;;12.12;82.03;97987.77;1775219;78;21147;-61
2022/09/27 05:55:17;;;;;;;;;;;;;;;12.30;81.85;97979.73;1813882;78;20117;-61
2022/09/27 05:57:59;;;;;;;;;;;;;;;12.51;81.62;97978.91;1773788;78;20135;-61
2022/09/27 06:00:26;;;;;;;;;;;;;;;12.48;81.08;97979.17;1766773;80;21243;-61
2022/09/27 06:02:58;;;;;;;;;;;;;;;12.37;81.23;97976.61;1739785;81;20131;-61
2022/09/27 06:05:27;;;;;;;;;;;;;;;12.16;81.13;97977.42;1746304;80;22286;-61
2022/09/27 06:07:57;;;;;;;;;;;;;;;11.99;81.18;97977.48;1721298;81;20138;-61
2022/09/27 06:10:24;;;;;;;;;;;;;;;11.88;81.56;97976.20;1794198;78;20775;-61
2022/09/27 06:12:51;;;;;;;;;;;;;;;11.81;81.55;97984.97;1754076;81;20505;-61
2022/09/27 06:15:17;;;;;;;;;;;;;;;11.71;81.47;97983.23;1751339;80;20572;-60
2022/09/27 06:17:43;;;;;;;;;;;;;;;11.64;81.52;97981.56;1759533;81;21436;-60
2022/09/27 06:20:10;;;;;;;;;;;;;;;11.64;81.80;97974.55;1751795;79;20199;-61
2022/09/27 06:22:40;;;;;;;;;;;;;;;11.90;82.01;97977.38;1747532;79;20106;-60
2022/09/27 06:25:08;;;;;;;;;;;;;;;12.25;81.96;97976.66;1762591;80;20106;-61
2022/09/27 06:27:34;;;;;;;;;;;;;;;12.68;81.82;97971.78;1742696;81;20198;-61
2022/09/27 06:30:01;;;;;;;;;;;;;;;13.08;81.45;97968.89;1748840;81;20456;-61
2022/09/27 06:32:28;;;;;;;;;;;;;;;13.23;80.82;97972.02;1752775;81;20178;-61
2022/09/27 06:34:54;;;;;;;;;;;;;;;13.28;80.51;97971.17;1756285;81;21037;-61
2022/09/27 06:37:25;;;;;;;;;;;;;;;13.28;80.42;97972.48;1750251;79;20176;-60
2022/09/27 06:39:54;;;;;;;;;;;;;;;13.21;80.23;97974.27;1751498;81;20191;-61
2022/09/27 06:42:21;;;;;;;;;;;;;;;13.36;80.28;97972.63;1750533;81;21984;-61
2022/09/27 06:44:48;;;;;;;;;;;;;;;13.53;80.30;97974.63;1741907;81;20090;-61
2022/09/27 06:47:16;;;;;;;;;;;;;;;13.65;79.35;97965.68;1747035;80;20098;-61
2022/09/27 06:49:43;;;;;;;;;;;;;;;13.68;79.63;97961.14;1758086;79;20143;-61
2022/09/27 06:52:10;;;;;;;;;;;;;;;13.83;79.63;97965.02;1741514;81;20105;-61
2022/09/27 06:54:36;;;;;;;;;;;;;;;13.84;79.62;97975.88;1741443;81;21117;-61
2022/09/27 06:57:03;;;;;;;;;;;;;;;13.80;79.57;97974.47;1752268;81;20090;-61
2022/09/27 07:02:17;;;;;;;;;;;;;;;13.64;78.89;97982.39;1748942;81;20161;-62
2022/09/27 07:04:43;;;;;;;;;;;;;;;13.66;79.22;97977.82;1744836;81;20185;-61
2022/09/27 07:07:10;;;;;;;;;;;;;;;13.63;79.00;97989.07;1747696;79;21139;-61
2022/09/27 07:09:39;;;;;;;;;;;;;;;13.60;79.22;97990.16;1755779;81;20222;-61
2022/09/27 07:12:06;;;;;;;;;;;;;;;13.61;78.87;97989.22;1748055;81;20116;-60
2022/09/27 07:14:33;;;;;;;;;;;;;;;13.55;78.82;97991.04;1759611;81;20252;-60
2022/09/27 07:17:00;;;;;;;;;;;;;;;13.51;78.74;97990.97;1750180;81;20240;-61
2022/09/27 07:19:27;;;;;;;;;;;;;;;13.48;78.68;97983.38;1744249;81;21113;-61
2022/09/27 07:21:53;;;;;;;;;;;;;;;13.40;78.49;97989.77;1756344;81;20323;-61
2022/09/27 07:24:20;;;;;;;;;;;;;;;13.46;78.88;97991.84;1755270;81;20200;-61
2022/09/27 07:26:47;;;;;;;;;;;;;;;13.55;78.79;97993.66;1747743;81;20143;-61
2022/09/27 07:29:13;;;;;;;;;;;;;;;13.66;78.78;98001.42;1742304;79;20205;-61
2022/09/27 07:31:41;;;;;;;;;;;;;;;13.78;78.55;97993.44;1750700;81;21652;-61
2022/09/27 07:34:08;;;;;;;;;;;;;;;13.82;78.39;98000.09;1749804;81;20121;-61
2022/09/27 07:36:34;;;;;;;;;;;;;;;13.79;78.05;97999.05;1736967;81;20177;-61
2022/09/27 07:39:01;;;;;;;;;;;;;;;13.76;77.78;97999.33;1739992;81;20141;-61
2022/09/27 07:41:27;;;;;;;;;;;;;;;13.68;78.04;97996.06;1752781;81;20119;-60
2022/09/27 07:43:53;;;;;;;;;;;;;;;13.62;77.75;97992.17;1751737;81;21456;-61
2022/09/27 07:46:20;;;;;;;;;;;;;;;13.54;77.44;97988.57;1750439;80;20516;-62
2022/09/27 07:48:48;;;;;;;;;;;;;;;13.58;77.90;97990.80;1742711;81;20093;-61
2022/09/27 07:51:14;;;;;;;;;;;;;;;13.70;77.76;97985.45;1748217;81;20509;-60
2022/09/27 07:53:40;;;;;;;;;;;;;;;13.86;77.91;97988.36;1739738;80;20129;-62
2022/09/27 07:56:08;;;;;;;;;;;;;;;13.93;77.46;97992.11;1745687;81;21199;-61
2022/09/27 07:58:35;;;;;;;;;;;;;;;13.99;77.66;97991.55;1768047;79;20116;-61
2022/09/27 08:01:01;;;;;;;;;;;;;;;14.03;77.33;97993.42;1743045;80;20116;-62
2022/09/27 08:03:28;;;;;;;;;;;;;;;14.07;77.25;97993.02;1815368;78;20121;-62
2022/09/27 08:05:54;;;;;;;;;;;;;;;14.00;76.88;97990.61;1774899;78;20096;-62
2022/09/27 08:08:21;;;;;;;;;;;;;;;14.07;77.36;97990.39;1747419;81;21478;-62
2022/09/27 08:10:47;;;;;;;;;;;;;;;14.23;77.35;97995.61;1758555;80;20167;-62
2022/09/27 08:13:16;;;;;;;;;;;;;;;14.38;77.48;97997.32;1756266;80;20187;-62
2022/09/27 08:15:42;;;;;;;;;;;;;;;14.53;77.52;97984.95;1810384;78;20145;-62
2022/09/27 08:18:09;;;;;;;;;;;;;;;14.68;77.70;97993.75;1782447;79;20238;-62
2022/09/27 08:20:36;;;;;;;;;;;;;;;14.80;77.21;97991.29;1730488;81;21533;-62
2022/09/27 08:23:03;;;;;;;;;;;;;;;14.82;76.92;97991.98;1729776;81;20103;-59
2022/09/27 08:25:29;;;;;;;;;;;;;;;14.77;77.01;97981.07;1811607;78;20180;-61
2022/09/27 08:27:56;;;;;;;;;;;;;;;14.82;76.81;97982.80;1814532;78;20219;-60
2022/09/27 08:30:23;;;;;;;;;;;;;;;14.75;76.29;97986.94;1737360;81;20099;-61
2022/09/27 08:32:55;;;;;;;;;;;;;;;14.68;76.75;97989.80;1741461;81;21137;-62
2022/09/27 08:35:21;;;;;;;;;;;;;;;14.71;76.38;97979.02;1808392;78;20234;-61
2022/09/27 08:37:59;;;;;;;;;;;;;;;14.70;76.39;97985.22;1764823;80;20195;-61
2022/09/27 08:40:46;;;;;;;;;;;;;;;14.61;75.75;97990.83;1778755;80;20464;-61
2022/09/27 08:43:31;;;;;;;;;;;;;;;14.70;76.24;97989.16;1733666;81;20102;-61
2022/09/27 08:46:01;;;;;;;;;;;;;;;14.70;76.20;97990.02;1746608;81;21162;-61
2022/09/27 08:48:29;;;;;;;;;;;;;;;14.79;76.37;97989.64;1736031;80;20128;-62
2022/09/27 08:50:56;;;;;;;;;;;;;;;14.84;75.71;97995.28;1747288;81;20161;-62
2022/09/27 08:53:26;;;;;;;;;;;;;;;14.78;75.50;97987.97;1750227;81;20150;-62
2022/09/27 08:55:55;;;;;;;;;;;;;;;14.65;75.32;97988.77;1741978;81;20111;-61
2022/09/27 08:58:27;;;;;;;;;;;;;;;14.62;75.46;97982.46;1743000;81;21834;-61
2022/09/27 09:00:56;;;;;;;;;;;;;;;14.57;75.47;97976.83;1756342;80;20218;-61
2022/09/27 09:03:26;;;;;;;;;;;;;;;14.51;75.21;97979.00;1758157;81;20157;-61
2022/09/27 09:06:05;;;;;;;;;;;;;;;14.36;75.00;97975.13;1748817;80;20331;-61
2022/09/27 09:08:58;;;;;;;;;;;;;;;13.99;74.02;97975.81;1763390;78;20078;-61
2022/09/27 09:15:09;;;;;;;;;;;;;;;13.20;74.69;97987.03;1778282;79;20687;-60
2022/09/27 09:17:52;;;;;;;;;;;;;;;13.05;75.33;97990.97;1745967;81;20189;-60
2022/09/27 09:20:39;;;;;;;;;;;;;;;13.12;75.53;97988.16;1766922;80;20511;-61
2022/09/27 09:23:38;;;;;;;;;;;;;;;13.31;75.73;97984.01;1787320;80;20152;-60
2022/09/27 09:26:14;;;;;;;;;;;;;;;13.38;75.30;97979.88;1788994;78;21826;-61
2022/09/27 09:28:59;;;;;;;;;;;;;;;13.26;75.01;97977.02;1739533;81;20171;-61
2022/09/27 09:31:51;;;;;;;;;;;;;;;13.14;74.99;97978.39;1704938;83;20284;-59
2022/09/27 09:34:23;;;;;;;;;;;;;;;13.06;75.10;97982.14;1682634;84;20258;-61
2022/09/27 09:37:11;;;;;;;;;;;;;;;13.09;75.39;97979.25;1669863;84;20193;-62
2022/09/27 09:39:50;;;;;;;;;;;;;;;13.09;75.39;97984.50;1667058;83;21165;-61
2022/09/27 09:42:35;;;;;;;;;;;;;;;13.09;75.38;97974.02;1715319;83;20220;-60
2022/09/27 09:45:20;;;;;;;;;;;;;;;13.17;75.77;97970.75;1686458;84;20137;-61
2022/09/27 09:48:09;;;;;;;;;;;;;;;13.46;75.85;97969.56;1682347;84;20104;-62
2022/09/27 09:50:44;;;;;;;;;;;;;;;13.47;75.00;97968.63;1675373;83;20585;-61
2022/09/27 09:53:26;;;;;;;;;;;;;;;13.38;74.91;97962.84;1692849;84;22396;-61
2022/09/27 09:56:11;;;;;;;;;;;;;;;13.31;75.52;97961.73;1688582;83;20158;-62
2022/09/27 09:58:56;;;;;;;;;;;;;;;13.47;75.80;97961.21;1676567;84;20153;-62
2022/09/27 10:01:34;;;;;;;;;;;;;;;13.69;76.01;97962.30;1679045;84;20189;-62
2022/09/27 10:04:01;;;;;;;;;;;;;;;13.83;75.69;97965.02;1682826;84;20097;-61
2022/09/27 10:06:30;;;;;;;;;;;;;;;13.79;75.23;97947.91;1726478;81;21099;-61
2022/09/27 10:08:56;;;;;;;;;;;;;;;13.88;75.98;97962.33;1752843;81;20198;-61
2022/09/27 10:11:30;;;;;;;;;;;;;;;14.12;75.52;97945.88;1751761;81;20086;-61
2022/09/27 10:13:56;;;;;;;;;;;;;;;14.26;75.78;97951.52;1747658;80;20165;-61
2022/09/27 10:16:23;;;;;;;;;;;;;;;14.42;75.53;97952.73;1748432;81;20496;-61
2022/09/27 10:18:52;;;;;;;;;;;;;;;14.43;75.00;97953.92;1712600;81;22010;-61
2022/09/27 10:21:24;;;;;;;;;;;;;;;14.51;75.66;97962.42;1744554;80;20109;-62
2022/09/27 10:24:07;;;;;;;;;;;;;;;14.71;75.83;97958.00;1748707;81;20154;-62
2022/09/27 10:26:38;;;;;;;;;;;;;;;14.91;75.49;97954.34;1745340;81;20168;-61
2022/09/27 10:29:20;;;;;;;;;;;;;;;14.99;74.83;97951.83;1765631;79;20127;-61
2022/09/27 10:31:49;;;;;;;;;;;;;;;15.00;73.79;97941.64;1774450;79;22283;-61
2022/09/27 10:34:33;;;;;;;;;;;;;;;14.89;73.83;97955.45;1732103;81;20133;-61
2022/09/27 10:37:16;;;;;;;;;;;;;;;14.77;73.83;97952.17;1742735;81;20205;-61
2022/09/27 10:39:44;;;;;;;;;;;;;;;14.77;74.23;97954.80;1742516;81;20173;-60
2022/09/27 10:42:37;;;;;;;;;;;;;;;14.86;74.05;97947.37;1736094;80;20217;-59
2022/09/27 10:45:21;;;;;;;;;;;;;;;14.84;73.30;97947.98;1746162;81;21240;-60
2022/09/27 10:47:48;;;;;;;;;;;;;;;14.71;73.34;97942.23;1743010;80;20199;-61
2022/09/27 10:50:20;;;;;;;;;;;;;;;14.64;73.14;97946.38;1757292;79;20201;-60
2022/09/27 10:52:48;;;;;;;;;;;;;;;14.57;73.17;97944.81;1751620;79;20098;-60
2022/09/27 10:55:23;;;;;;;;;;;;;;;14.52;72.98;97951.80;1751437;79;20195;-61
2022/09/27 10:57:52;;;;;;;;;;;;;;;14.48;72.92;97946.92;1724742;81;22106;-60
2022/09/27 11:00:24;;;;;;;;;;;;;;;14.38;73.04;97951.37;1743836;79;20102;-60
2022/09/27 11:02:55;;;;;;;;;;;;;;;14.40;73.32;97945.02;1754134;79;20289;-60
2022/09/27 11:05:26;;;;;;;;;;;;;;;14.44;73.29;97939.81;1755553;79;20378;-60
2022/09/27 11:07:55;;;;;;;;;;;;;;;14.38;73.17;97937.76;1752512;79;20507;-60
2022/09/27 11:10:27;;;;;;;;;;;;;;;14.29;73.11;97942.55;1745583;79;22058;-60
2022/09/27 11:13:16;;;;;;;;;;;;;;;14.20;73.31;97940.73;1747186;81;20572;-60
2022/09/27 11:15:58;;;;;;;;;;;;;;;14.20;73.33;97939.41;1751819;79;20232;-60
2022/09/27 11:18:48;;;;;;;;;;;;;;;14.13;73.53;97947.52;1758182;78;20125;-59
2022/09/27 11:21:44;;;;;;;;;;;;;;;;;;;;;
2022/09/27 11:24:40;;;;;;;;;;;;;;;14.30;73.72;97938.94;1653309;85;20172;-60
2022/09/27 11:27:19;;;;;;;;;;;;;;;14.33;73.65;97943.91;1656145;85;20130;-60
2022/09/27 11:30:09;;;;;;;;;;;;;;;14.37;73.60;97946.61;1681122;82;20139;-59
2022/09/27 11:33:13;;;;;;;;;;;;;;;14.32;73.68;97947.02;1685585;82;20539;-61
2022/09/27 11:35:46;;;;;;;;;;;;;;;14.28;73.57;97942.17;1690301;82;20129;-60
2022/09/27 11:38:22;;;;;;;;;;;;;;;14.19;73.70;97940.39;1692125;82;21231;-59
2022/09/27 11:41:20;;;;;;;;;;;;;;;14.18;73.92;97940.06;1692694;82;21298;-61
2022/09/27 11:44:08;;;;;;;;;;;;;;;14.25;74.13;97941.97;1691658;82;20126;-61
2022/09/27 11:46:39;;;;;;;;;;;;;;;14.30;74.05;97938.94;1701433;82;20458;-60
2022/09/27 11:49:18;;;;;;;;;;;;;;;14.29;73.83;97937.29;1705913;82;20160;-61
2022/09/27 11:52:05;;;;;;;;;;;;;;;14.26;73.80;97940.20;1703300;82;21116;-62
2022/09/27 11:54:50;;;;;;;;;;;;;;;14.32;74.10;97937.01;1699346;82;20205;-60
2022/09/27 11:57:27;;;;;;;;;;;;;;;14.45;74.19;97929.68;1664778;84;20175;-61
2022/09/27 11:59:57;;;;;;;;;;;;;;;14.55;74.13;97932.30;1663993;84;20246;-61
2022/09/27 12:02:33;;;;;;;;;;;;;;;14.64;74.29;97925.38;1680600;83;20218;-61
2022/09/27 12:05:26;;;;;;;;;;;;;;;14.72;74.25;97933.38;1681805;83;21152;-61
2022/09/27 12:08:14;;;;;;;;;;;;;;;14.75;73.98;97927.83;1679059;83;20316;-61
2022/09/27 12:10:43;;;;;;;;;;;;;;;14.67;73.98;97919.83;1692926;83;20556;-61
2022/09/27 12:13:12;;;;;;;;;;;;;;;14.65;74.07;97921.80;1692406;83;20224;-61
2022/09/27 12:15:41;;;;;;;;;;;;;;;14.72;74.30;97923.69;1681162;83;20244;-60
2022/09/27 12:18:12;;;;;;;;;;;;;;;14.93;74.66;97914.80;1690113;83;21213;-60
2022/09/27 12:20:40;;;;;;;;;;;;;;;15.06;74.21;97911.82;1688584;83;20205;-61
2022/09/27 12:23:28;;;;;;;;;;;;;;;15.15;74.36;97910.94;1677855;83;20219;-61
2022/09/27 12:25:58;;;;;;;;;;;;;;;15.23;73.92;97905.78;1679637;84;20300;-60
2022/09/27 12:28:49;;;;;;;;;;;;;;;15.19;73.36;97907.06;1679909;83;27340;-61
2022/09/27 12:31:20;;;;;;;;;;;;;;;15.17;73.62;97901.11;1638903;85;21994;-62
2022/09/27 12:34:10;;;;;;;;;;;;;;;15.16;73.84;97899.47;1607286;86;20136;-60
2022/09/27 12:36:42;;;;;;;;;;;;;;;15.19;73.37;97888.66;1637515;86;20111;-59
2022/09/27 12:39:28;;;;;;;;;;;;;;;15.12;73.58;97892.83;1654672;84;20119;-59
2022/09/27 12:42:01;;;;;;;;;;;;;;;14.94;73.06;97888.36;1588675;88;20459;-59
2022/09/27 12:44:34;;;;;;;;;;;;;;;14.70;72.90;97887.56;1589997;88;21240;-59
2022/09/27 12:47:29;;;;;;;;;;;;;;;14.62;73.55;97885.28;1572126;89;20175;-59
2022/09/27 12:50:09;;;;;;;;;;;;;;;14.62;73.40;97886.59;1583471;88;20239;-60
2022/09/27 12:52:39;;;;;;;;;;;;;;;14.63;73.23;97884.33;1586220;88;20277;-60
2022/09/27 12:55:11;;;;;;;;;;;;;;;14.67;73.43;97877.80;1573443;87;20172;-60
2022/09/27 12:58:15;;;;;;;;;;;;;;;14.74;73.53;97881.52;1586625;88;21526;-60
2022/09/27 13:00:50;;;;;;;;;;;;;;;14.78;73.64;97878.94;1590171;88;20286;-60
2022/09/27 13:03:39;;;;;;;;;;;;;;;14.95;73.87;97874.23;1586107;88;20188;-60
2022/09/27 13:06:31;;;;;;;;;;;;;;;15.05;73.57;97868.13;1577287;88;20499;-60
2022/09/27 13:09:34;;;;;;;;;;;;;;;15.13;73.63;97872.17;1537222;91;20249;-60
2022/09/27 13:12:05;;;;;;;;;;;;;;;15.09;73.34;97873.41;1531920;90;21278;-61
2022/09/27 13:14:34;;;;;;;;;;;;;;;15.15;72.84;97873.68;1538614;90;20171;-60
2022/09/27 13:17:00;;;;;;;;;;;;;;;15.05;72.24;97871.58;1513536;93;20303;-61
2022/09/27 13:19:39;;;;;;;;;;;;;;;15.02;72.61;97871.05;1549706;89;20197;-60
2022/09/27 13:22:12;;;;;;;;;;;;;;;15.02;72.47;97871.05;1586111;88;20246;-59
2022/09/27 13:24:41;;;;;;;;;;;;;;;14.93;71.62;97868.31;1582896;88;22043;-60
2022/09/27 13:27:32;;;;;;;;;;;;;;;14.86;72.04;97864.59;1554317;91;20281;-60
2022/09/27 13:30:10;;;;;;;;;;;;;;;14.80;72.22;97859.93;1549186;90;20312;-60